createdAt,value
2023-04-23T00:01:43.294Z,36.90
2023-04-23T00:04:14.881Z,39.97
2023-04-23T00:06:46.195Z,41.77
2023-04-23T00:09:21.394Z,40.90
2023-04-23T00:11:49.952Z,40.00
2023-04-23T00:14:18.739Z,42.57
2023-04-23T00:16:47.341Z,38.87
2023-04-23T00:19:16.451Z,46.40
2023-04-23T00:21:44.504Z,41.40
2023-04-23T00:24:13.608Z,39.87
2023-04-23T00:26:43.078Z,42.50
2023-04-23T00:29:11.146Z,45.70
2023-04-23T00:31:39.730Z,41.00
2023-04-23T00:34:07.883Z,43.87
2023-04-23T00:36:38.638Z,41.53
2023-04-23T00:39:06.871Z,45.40
2023-04-23T00:41:36.254Z,42.17
2023-04-23T00:44:06.243Z,42.73
2023-04-23T00:46:54.613Z,48.63
2023-04-23T00:49:24.471Z,41.23
2023-04-23T00:51:52.724Z,43.00
2023-04-23T00:54:20.728Z,40.83
2023-04-23T00:56:49.301Z,40.00
2023-04-23T00:59:19.157Z,45.27
2023-04-23T01:01:47.930Z,43.00
2023-04-23T01:04:19.399Z,41.47
2023-04-23T01:06:48.748Z,38.40
2023-04-23T01:09:39.246Z,40.70
2023-04-23T01:12:10.330Z,36.90
2023-04-23T01:14:41.163Z,38.57
2023-04-23T01:17:09.835Z,40.67
2023-04-23T01:19:37.875Z,36.70
2023-04-23T01:22:12.225Z,37.87
2023-04-23T01:24:43.013Z,37.27
2023-04-23T01:27:11.829Z,34.37
2023-04-23T01:29:40.467Z,88.80
2023-04-23T01:32:11.566Z,42.00
2023-04-23T01:34:40.700Z,37.97
2023-04-23T01:37:12.983Z,37.03
2023-04-23T01:39:43.641Z,34.93
2023-04-23T01:42:11.777Z,35.50
2023-04-23T01:44:40.852Z,35.00
2023-04-23T01:47:11.267Z,34.00
2023-04-23T01:49:39.385Z,36.43
2023-04-23T01:52:09.767Z,38.50
2023-04-23T01:55:00.055Z,36.33
2023-04-23T01:57:28.310Z,33.53
2023-04-23T02:00:04.002Z,32.63
2023-04-23T02:02:32.163Z,31.63
2023-04-23T02:05:04.563Z,32.13
2023-04-23T02:07:35.458Z,31.90
2023-04-23T02:10:05.595Z,31.67
2023-04-23T02:12:34.038Z,30.80
2023-04-23T02:15:02.812Z,31.50
2023-04-23T02:17:40.039Z,30.33
2023-04-23T02:20:13.237Z,31.27
2023-04-23T02:22:44.954Z,31.13
2023-04-23T02:25:18.141Z,30.57
2023-04-23T02:27:46.623Z,27.50
2023-04-23T02:30:15.318Z,27.60
2023-04-23T02:32:44.096Z,32.43
2023-04-23T02:35:12.785Z,28.70
2023-04-23T02:37:41.237Z,28.80
2023-04-23T02:40:11.098Z,26.63
2023-04-23T02:42:42.581Z,27.37
2023-04-23T02:45:12.905Z,31.00
2023-04-23T02:47:41.504Z,28.53
2023-04-23T02:50:10.488Z,29.47
2023-04-23T02:52:40.142Z,32.43
2023-04-23T02:55:10.808Z,27.80
2023-04-23T02:57:41.039Z,29.77
2023-04-23T03:00:11.773Z,30.20
2023-04-23T03:02:41.337Z,24.80
2023-04-23T03:05:11.547Z,28.83
2023-04-23T03:07:39.585Z,26.77
2023-04-23T03:10:11.120Z,24.33
2023-04-23T03:12:40.929Z,27.03
2023-04-23T03:15:10.302Z,26.57
2023-04-23T03:17:39.144Z,31.37
2023-04-23T03:20:11.016Z,27.60
2023-04-23T03:22:39.011Z,26.77
2023-04-23T03:25:08.858Z,29.03
2023-04-23T03:27:39.039Z,25.97
2023-04-23T03:30:11.067Z,26.07
2023-04-23T03:32:39.922Z,26.13
2023-04-23T03:35:09.553Z,27.60
2023-04-23T03:37:37.886Z,28.17
2023-04-23T03:40:08.941Z,29.63
2023-04-23T03:42:40.612Z,26.30
2023-04-23T03:45:13.329Z,28.27
2023-04-23T03:47:41.834Z,26.80
2023-04-23T03:50:12.903Z,26.43
2023-04-23T03:52:49.889Z,26.20
2023-04-23T03:55:18.012Z,22.97
2023-04-23T03:57:46.120Z,25.33
2023-04-23T04:00:16.132Z,24.93
2023-04-23T04:02:45.893Z,24.83
2023-04-23T04:05:16.348Z,29.07
2023-04-23T04:07:44.722Z,24.63
2023-04-23T04:10:13.201Z,24.20
2023-04-23T04:12:42.122Z,24.20
2023-04-23T04:15:11.804Z,22.83
2023-04-23T04:17:45.909Z,21.93
2023-04-23T04:20:16.807Z,22.23
2023-04-23T04:22:44.864Z,22.63
2023-04-23T04:25:13.218Z,19.30
2023-04-23T04:27:42.322Z,23.47
2023-04-23T04:30:11.788Z,26.93
2023-04-23T04:32:40.597Z,22.40
2023-04-23T04:35:12.823Z,23.53
2023-04-23T04:37:43.992Z,24.20
2023-04-23T04:40:13.137Z,20.77
2023-04-23T04:42:43.070Z,20.73
2023-04-23T04:45:12.082Z,25.10
2023-04-23T04:47:42.807Z,23.47
2023-04-23T04:50:14.268Z,22.40
2023-04-23T04:52:43.228Z,30.83
2023-04-23T04:55:11.551Z,26.97
2023-04-23T04:57:39.844Z,25.20
2023-04-23T05:00:22.679Z,20.97
2023-04-23T05:02:52.313Z,25.67
2023-04-23T05:05:24.924Z,22.73
2023-04-23T05:07:54.309Z,20.97
2023-04-23T05:10:22.909Z,25.13
2023-04-23T05:12:52.826Z,23.37
2023-04-23T05:15:21.072Z,24.03
2023-04-23T05:17:51.277Z,22.33
2023-04-23T05:20:19.247Z,25.33
2023-04-23T05:22:50.797Z,23.27
2023-04-23T05:25:20.638Z,22.70
2023-04-23T05:27:48.733Z,23.30
2023-04-23T05:30:17.075Z,24.97
2023-04-23T05:32:45.480Z,23.90
2023-04-23T05:35:13.365Z,27.33
2023-04-23T05:37:41.830Z,22.20
2023-04-23T05:40:12.175Z,24.03
2023-04-23T05:42:40.117Z,24.70
2023-04-23T05:45:09.397Z,24.33
2023-04-23T05:47:38.042Z,23.93
2023-04-23T05:50:07.149Z,24.43
2023-04-23T05:52:37.252Z,23.57
2023-04-23T05:55:05.961Z,26.40
2023-04-23T05:57:35.242Z,26.83
2023-04-23T06:00:03.974Z,24.47
2023-04-23T06:02:33.897Z,23.57
2023-04-23T06:05:02.187Z,23.13
2023-04-23T06:07:30.518Z,23.23
2023-04-23T06:09:58.474Z,22.47
2023-04-23T06:12:26.669Z,25.57
2023-04-23T06:14:55.970Z,22.77
2023-04-23T06:17:23.911Z,21.90
2023-04-23T06:19:52.169Z,19.37
2023-04-23T06:22:20.088Z,16.47
2023-04-23T06:24:48.047Z,16.87
2023-04-23T06:27:16.522Z,18.90
2023-04-23T06:29:44.476Z,17.03
2023-04-23T06:32:13.792Z,15.00
2023-04-23T06:34:53.256Z,15.27
2023-04-23T06:37:29.845Z,16.77
2023-04-23T06:39:58.141Z,19.87
2023-04-23T06:42:26.053Z,11.77
2023-04-23T06:44:54.053Z,18.73
2023-04-23T06:47:23.376Z,16.87
2023-04-23T06:49:51.326Z,14.33
2023-04-23T06:52:19.218Z,19.67
2023-04-23T06:54:47.102Z,15.07
2023-04-23T06:57:15.318Z,15.80
2023-04-23T06:59:43.238Z,15.93
2023-04-23T07:02:11.269Z,16.70
2023-04-23T07:04:41.192Z,17.03
2023-04-23T07:07:09.719Z,15.70
2023-04-23T07:09:37.632Z,14.60
2023-04-23T07:12:05.928Z,14.03
2023-04-23T07:14:33.987Z,14.40
2023-04-23T07:17:01.944Z,19.17
2023-04-23T07:19:29.991Z,12.80
2023-04-23T07:21:59.337Z,14.57
2023-04-23T07:24:27.506Z,14.53
2023-04-23T07:26:55.821Z,10.97
2023-04-23T07:29:24.069Z,14.23
2023-04-23T07:31:52.053Z,12.40
2023-04-23T07:34:20.317Z,11.63
2023-04-23T07:36:48.265Z,11.13
2023-04-23T07:39:17.556Z,12.03
2023-04-23T07:41:45.766Z,11.47
2023-04-23T07:44:13.710Z,12.67
2023-04-23T07:46:41.666Z,13.17
2023-04-23T07:49:09.636Z,17.53
2023-04-23T07:51:37.722Z,13.57
2023-04-23T07:54:05.929Z,14.13
2023-04-23T07:56:36.318Z,12.53
2023-04-23T07:59:05.060Z,10.77
2023-04-23T08:01:34.675Z,13.40
2023-04-23T08:04:03.230Z,10.97
2023-04-23T08:06:33.517Z,13.23
2023-04-23T08:09:06.202Z,13.60
2023-04-23T08:11:35.505Z,13.70
2023-04-23T08:14:03.545Z,14.47
2023-04-23T08:16:32.070Z,10.93
2023-04-23T08:19:05.279Z,15.17
2023-04-23T08:21:34.912Z,13.83
2023-04-23T08:24:04.150Z,10.97
2023-04-23T08:26:32.136Z,11.60
2023-04-23T08:29:01.629Z,16.37
2023-04-23T08:31:29.814Z,12.98
2023-04-23T08:33:58.180Z,17.83
2023-04-23T08:36:27.493Z,12.97
2023-04-23T08:38:55.562Z,22.03
2023-04-23T08:41:27.110Z,15.37
2023-04-23T08:44:05.986Z,13.20
2023-04-23T08:46:37.762Z,14.97
2023-04-23T08:49:08.942Z,18.23
2023-04-23T08:51:42.951Z,13.10
2023-04-23T08:54:19.662Z,13.33
2023-04-23T08:56:48.710Z,14.63
2023-04-23T08:59:20.355Z,11.93
2023-04-23T09:01:48.749Z,15.77
2023-04-23T09:04:19.794Z,17.27
2023-04-23T09:06:47.925Z,20.40
2023-04-23T09:09:17.394Z,17.00
2023-04-23T09:11:45.689Z,16.27
2023-04-23T09:14:14.704Z,16.43
2023-04-23T09:16:44.532Z,18.17
2023-04-23T09:19:12.996Z,10.95
2023-04-23T09:21:41.851Z,13.27
2023-04-23T09:24:12.545Z,10.90
2023-04-23T09:26:47.065Z,12.30
2023-04-23T09:29:19.054Z,9.73
2023-04-23T09:31:50.330Z,10.67
2023-04-23T09:34:19.178Z,13.93
2023-04-23T09:36:49.328Z,14.47
2023-04-23T09:39:18.926Z,9.07
2023-04-23T09:41:47.305Z,12.80
2023-04-23T09:44:20.144Z,12.13
2023-04-23T09:46:50.241Z,13.30
2023-04-23T09:49:18.198Z,12.80
2023-04-23T09:51:48.605Z,10.80
2023-04-23T09:54:18.677Z,12.53
2023-04-23T09:56:51.355Z,9.30
2023-04-23T09:59:32.467Z,10.18
2023-04-23T10:02:07.138Z,7.77
2023-04-23T10:04:35.883Z,7.78
2023-04-23T10:07:19.066Z,10.88
2023-04-23T10:09:48.728Z,10.50
2023-04-23T10:12:35.689Z,17.67
2023-04-23T10:15:06.935Z,9.03
2023-04-23T10:17:37.320Z,8.50
2023-04-23T10:20:06.957Z,9.82
2023-04-23T10:22:36.157Z,8.20
2023-04-23T10:25:09.061Z,11.20
2023-04-23T10:27:52.144Z,11.70
2023-04-23T10:30:22.634Z,12.60
2023-04-23T10:32:52.408Z,11.68
2023-04-23T10:35:20.417Z,8.98
2023-04-23T10:37:49.728Z,7.47
2023-04-23T10:40:22.273Z,9.10
2023-04-23T10:42:51.081Z,6.82
2023-04-23T10:45:24.842Z,7.53
2023-04-23T10:48:17.203Z,12.27
2023-04-23T10:51:02.414Z,7.53
2023-04-23T10:53:37.854Z,11.07
2023-04-23T10:56:07.715Z,6.63
2023-04-23T10:58:50.444Z,8.30
2023-04-23T11:01:19.020Z,8.88
2023-04-23T11:03:48.950Z,7.63
2023-04-23T11:06:43.334Z,9.82
2023-04-23T11:09:33.995Z,5.88
2023-04-23T11:12:03.473Z,6.40
2023-04-23T11:14:42.632Z,5.60
2023-04-23T11:17:13.389Z,9.60
2023-04-23T11:20:03.352Z,8.65
2023-04-23T11:22:37.001Z,8.18
2023-04-23T11:25:06.578Z,7.82
2023-04-23T11:27:34.753Z,9.02
2023-04-23T11:30:02.809Z,8.68
2023-04-23T11:32:31.148Z,7.85
2023-04-23T11:35:05.423Z,5.43
2023-04-23T11:37:33.430Z,5.00
2023-04-23T11:40:08.567Z,6.72
2023-04-23T11:42:43.603Z,8.18
2023-04-23T11:45:17.292Z,7.25
2023-04-23T11:47:46.264Z,7.60
2023-04-23T11:50:20.364Z,7.63
2023-04-23T11:52:48.972Z,6.60
2023-04-23T11:55:17.527Z,8.13
2023-04-23T11:57:47.252Z,9.48
2023-04-23T12:00:17.953Z,7.68
2023-04-23T12:02:56.437Z,7.22
2023-04-23T12:05:30.012Z,7.93
2023-04-23T12:08:09.790Z,12.73
2023-04-23T12:10:44.193Z,10.23
2023-04-23T12:13:15.886Z,5.63
2023-04-23T12:15:48.635Z,5.97
2023-04-23T12:18:16.791Z,10.68
2023-04-23T12:20:46.987Z,9.18
2023-04-23T12:23:15.358Z,4.03
2023-04-23T12:25:43.361Z,5.05
2023-04-23T12:28:11.470Z,5.75
2023-04-23T12:30:45.550Z,6.20
2023-04-23T12:33:13.551Z,7.22
2023-04-23T12:35:42.593Z,7.20
2023-04-23T12:38:25.288Z,6.72
2023-04-23T12:40:53.584Z,6.68
2023-04-23T12:43:21.715Z,5.57
2023-04-23T12:45:50.256Z,8.52
2023-04-23T12:48:18.188Z,5.55
2023-04-23T12:50:46.542Z,4.47
2023-04-23T12:53:16.276Z,2.42
2023-04-23T12:55:45.634Z,5.18
2023-04-23T12:58:13.799Z,14.15
2023-04-23T13:00:41.985Z,3.63
2023-04-23T13:03:10.122Z,3.80
2023-04-23T13:05:38.131Z,4.60
2023-04-23T13:08:06.702Z,3.17
2023-04-23T13:10:36.362Z,7.00
2023-04-23T13:13:04.351Z,7.63
2023-04-23T13:15:32.382Z,5.10
2023-04-23T13:18:00.310Z,8.32
2023-04-23T13:20:28.465Z,8.03
2023-04-23T13:22:56.455Z,4.53
2023-04-23T13:25:24.841Z,8.20
2023-04-23T13:27:54.255Z,6.17
2023-04-23T13:30:22.448Z,5.93
2023-04-23T13:32:50.436Z,7.88
2023-04-23T13:35:18.644Z,6.75
2023-04-23T13:37:46.820Z,8.97
2023-04-23T13:40:14.990Z,6.05
2023-04-23T13:42:43.040Z,8.57
2023-04-23T13:45:14.677Z,7.78
2023-04-23T13:47:42.946Z,6.70
2023-04-23T13:50:11.654Z,7.03
2023-04-23T13:52:39.838Z,6.35
2023-04-23T13:55:09.540Z,10.30
2023-04-23T13:57:38.441Z,6.30
2023-04-23T14:00:08.274Z,10.55
2023-04-23T14:02:37.806Z,8.55
2023-04-23T14:05:06.623Z,8.33
2023-04-23T14:07:34.910Z,11.63
2023-04-23T14:10:03.219Z,10.57
2023-04-23T14:12:31.261Z,11.35
2023-04-23T14:15:00.553Z,10.05
2023-04-23T14:17:28.931Z,7.75
2023-04-23T14:19:58.788Z,6.22
2023-04-23T14:22:26.842Z,8.32
2023-04-23T14:25:02.831Z,5.22
2023-04-23T14:27:33.608Z,5.80
2023-04-23T14:30:06.771Z,4.47
2023-04-23T14:32:34.762Z,4.40
2023-04-23T14:35:04.300Z,6.50
2023-04-23T14:37:32.265Z,6.28
2023-04-23T14:40:00.252Z,5.20
2023-04-23T14:42:28.339Z,5.77
2023-04-23T14:45:00.038Z,4.93
2023-04-23T14:47:30.797Z,5.97
2023-04-23T14:50:01.040Z,7.63
2023-04-23T14:52:31.743Z,4.07
2023-04-23T14:54:59.672Z,5.90
2023-04-23T14:57:28.392Z,7.40
2023-04-23T14:59:56.459Z,6.70
2023-04-23T15:02:24.564Z,5.38
2023-04-23T15:04:52.607Z,8.07
2023-04-23T15:07:20.579Z,10.50
2023-04-23T15:09:49.889Z,7.60
2023-04-23T15:12:43.334Z,6.28
2023-04-23T15:15:16.714Z,5.95
2023-04-23T15:17:44.733Z,6.28
2023-04-23T15:20:12.794Z,4.53
2023-04-23T15:22:40.723Z,4.85
2023-04-23T15:25:10.367Z,4.10
2023-04-23T15:27:38.589Z,2.30
2023-04-23T15:30:07.880Z,4.13
2023-04-23T15:32:35.849Z,3.72
2023-04-23T15:35:03.846Z,2.67
2023-04-23T15:37:31.852Z,4.82
2023-04-23T15:39:59.830Z,2.50
2023-04-23T15:42:29.202Z,4.05
2023-04-23T15:44:57.158Z,4.90
2023-04-23T15:47:25.836Z,6.18
2023-04-23T15:49:53.945Z,4.65
2023-04-23T15:52:21.956Z,5.05
2023-04-23T15:54:50.397Z,3.42
2023-04-23T15:57:18.337Z,3.17
2023-04-23T15:59:47.712Z,3.83
2023-04-23T16:02:17.270Z,3.90
2023-04-23T16:04:46.096Z,6.67
2023-04-23T16:07:14.381Z,3.80
2023-04-23T16:09:42.754Z,4.03
2023-04-23T16:12:10.961Z,6.03
2023-04-23T16:14:38.993Z,6.18
2023-04-23T16:17:08.529Z,4.83
2023-04-23T16:19:36.618Z,4.38
2023-04-23T16:22:04.641Z,2.37
2023-04-23T16:24:33.220Z,2.70
2023-04-23T16:27:02.400Z,4.00
2023-04-23T16:29:30.611Z,2.22
2023-04-23T16:31:58.603Z,3.35
2023-04-23T16:34:28.356Z,2.07
2023-04-23T16:36:56.349Z,2.77
2023-04-23T16:39:24.923Z,2.85
2023-04-23T16:41:52.974Z,2.03
2023-04-23T16:44:20.978Z,3.90
2023-04-23T16:46:49.112Z,2.90
2023-04-23T16:49:17.146Z,4.00
2023-04-23T16:51:47.249Z,3.80
2023-04-23T16:54:15.238Z,5.53
2023-04-23T16:56:45.336Z,3.77
2023-04-23T16:59:15.255Z,3.53
2023-04-23T17:01:43.337Z,5.37
2023-04-23T17:04:11.713Z,3.73
2023-04-23T17:07:40.606Z,3.45
2023-04-23T17:10:09.850Z,3.83
2023-04-23T17:12:39.783Z,3.27
2023-04-23T17:15:38.352Z,3.70
2023-04-23T17:18:06.919Z,3.93
2023-04-23T17:20:35.334Z,3.17
2023-04-23T17:23:04.761Z,5.78
2023-04-23T17:25:34.993Z,2.77
2023-04-23T17:28:02.970Z,4.37
2023-04-23T17:30:30.963Z,4.00
2023-04-23T17:32:59.161Z,2.97
2023-04-23T17:35:27.296Z,6.57
2023-04-23T17:37:55.319Z,3.30
2023-04-23T17:40:24.775Z,4.03
2023-04-23T17:42:52.745Z,2.93
2023-04-23T17:45:20.688Z,5.57
2023-04-23T17:47:48.999Z,2.78
2023-04-23T17:50:17.323Z,4.70
2023-04-23T17:52:45.709Z,7.57
2023-04-23T17:55:36.265Z,4.07
2023-04-23T17:58:09.491Z,4.70
2023-04-23T18:00:39.385Z,7.03
2023-04-23T18:03:10.075Z,4.50
2023-04-23T18:05:44.650Z,4.55
2023-04-23T18:08:17.444Z,6.93
2023-04-23T18:10:46.201Z,4.03
2023-04-23T18:13:20.177Z,4.37
2023-04-23T18:15:50.318Z,5.40
2023-04-23T18:18:21.768Z,6.40
2023-04-23T18:20:52.115Z,4.73
2023-04-23T18:23:22.122Z,4.70
2023-04-23T18:25:51.925Z,5.07
2023-04-23T18:28:22.968Z,3.83
2023-04-23T18:30:51.618Z,2.80
2023-04-23T18:33:31.948Z,5.90
2023-04-23T18:36:10.832Z,3.23
2023-04-23T18:38:48.131Z,3.23
2023-04-23T18:41:18.238Z,3.43
2023-04-23T18:43:49.752Z,4.93
2023-04-23T18:46:18.242Z,7.90
2023-04-23T18:48:53.615Z,5.87
2023-04-23T18:51:27.980Z,4.03
2023-04-23T18:53:56.319Z,3.33
2023-04-23T18:56:25.142Z,3.73
2023-04-23T18:58:57.347Z,4.33
2023-04-23T19:01:28.605Z,4.20
2023-04-23T19:03:59.398Z,3.33
2023-04-23T19:06:28.722Z,2.90
2023-04-23T19:08:57.928Z,6.60
2023-04-23T19:11:27.198Z,4.17
2023-04-23T19:13:56.856Z,5.87
2023-04-23T19:16:26.703Z,4.93
2023-04-23T19:19:14.172Z,6.13
2023-04-23T19:21:42.777Z,5.63
2023-04-23T19:24:11.008Z,4.90
2023-04-23T19:26:39.021Z,2.93
2023-04-23T19:29:09.724Z,4.27
2023-04-23T19:31:39.424Z,4.97
2023-04-23T19:34:10.017Z,6.87
2023-04-23T19:36:38.357Z,6.27
2023-04-23T19:39:07.369Z,4.77
2023-04-23T19:41:36.551Z,6.57
2023-04-23T19:44:05.200Z,6.27
2023-04-23T19:46:35.403Z,5.20
2023-04-23T19:49:03.630Z,3.67
2023-04-23T19:51:35.543Z,4.63
2023-04-23T19:54:03.735Z,4.60
2023-04-23T19:56:32.135Z,4.27
2023-04-23T19:59:00.989Z,3.67
2023-04-23T20:01:30.244Z,4.90
2023-04-23T20:03:59.987Z,4.83
2023-04-23T20:06:28.925Z,5.33
2023-04-23T20:09:08.057Z,6.97
2023-04-23T20:11:36.623Z,6.43
2023-04-23T20:14:05.986Z,6.43
2023-04-23T20:16:34.984Z,6.23
2023-04-23T20:19:11.102Z,6.10
2023-04-23T20:21:40.030Z,6.33
2023-04-23T20:24:08.840Z,3.83
2023-04-23T20:26:37.999Z,4.57
2023-04-23T20:29:06.842Z,6.83
2023-04-23T20:31:56.008Z,2.93
2023-04-23T20:34:26.374Z,4.80
2023-04-23T20:36:54.503Z,3.67
2023-04-23T20:39:24.349Z,5.10
2023-04-23T20:41:55.059Z,7.57
2023-04-23T20:44:24.258Z,4.00
2023-04-23T20:46:52.910Z,6.83
2023-04-23T20:49:21.777Z,4.57
2023-04-23T20:51:52.881Z,4.30
2023-04-23T20:54:20.877Z,5.93
2023-04-23T20:56:54.022Z,6.50
2023-04-23T20:59:22.324Z,4.53
2023-04-23T21:01:51.027Z,6.27
2023-04-23T21:04:19.306Z,4.23
2023-04-23T21:06:49.181Z,2.80
2023-04-23T21:09:18.973Z,3.60
2023-04-23T21:11:47.203Z,5.57
2023-04-23T21:14:15.391Z,3.93
2023-04-23T21:16:44.846Z,5.60
2023-04-23T21:19:12.843Z,5.90
2023-04-23T21:21:40.904Z,5.13
2023-04-23T21:24:09.149Z,5.73
2023-04-23T21:26:38.875Z,9.57
2023-04-23T21:29:07.030Z,7.37
2023-04-23T21:31:48.928Z,5.83
2023-04-23T21:34:17.548Z,3.87
2023-04-23T21:36:46.280Z,5.97
2023-04-23T21:39:14.957Z,4.47
2023-04-23T21:41:47.083Z,5.63
2023-04-23T21:44:15.070Z,4.80
2023-04-23T21:46:44.777Z,5.57
2023-04-23T21:49:13.323Z,3.77
2023-04-23T21:51:41.316Z,3.00
2023-04-23T21:54:09.357Z,5.23
2023-04-23T21:56:37.524Z,3.33
2023-04-23T21:59:07.272Z,7.93
2023-04-23T22:01:36.791Z,12.30
2023-04-23T22:04:05.137Z,13.70
2023-04-23T22:06:34.472Z,6.93
2023-04-23T22:09:03.058Z,30.63
2023-04-23T22:11:31.654Z,7.93
2023-04-23T22:14:00.223Z,8.83
2023-04-23T22:16:30.225Z,8.47
2023-04-23T22:18:58.638Z,7.63
2023-04-23T22:21:28.199Z,6.07
2023-04-23T22:23:56.473Z,11.43
2023-04-23T22:26:24.463Z,7.97
2023-04-23T22:28:52.471Z,5.57
2023-04-23T22:31:20.587Z,4.90
2023-04-23T22:33:49.886Z,8.30
2023-04-23T22:36:18.036Z,6.73
2023-04-23T22:38:46.055Z,4.63
2023-04-23T22:41:14.070Z,6.47
2023-04-23T22:43:42.134Z,4.43
2023-04-23T22:46:10.536Z,7.07
2023-04-23T22:48:45.209Z,3.67
2023-04-23T22:51:16.167Z,5.40
2023-04-23T22:53:44.298Z,4.93
2023-04-23T22:56:13.708Z,3.17
2023-04-23T22:58:41.822Z,2.03
2023-04-23T23:01:09.901Z,3.53
2023-04-23T23:03:37.996Z,4.10
2023-04-23T23:06:06.369Z,5.37
2023-04-23T23:08:36.062Z,8.73
2023-04-23T23:11:04.083Z,4.47
2023-04-23T23:13:32.190Z,2.43
2023-04-23T23:16:02.707Z,4.57
2023-04-23T23:18:30.662Z,6.67
2023-04-23T23:20:58.649Z,3.03
2023-04-23T23:23:26.747Z,6.13
2023-04-23T23:25:57.656Z,6.43
2023-04-23T23:28:26.897Z,7.20
2023-04-23T23:30:55.575Z,4.00
2023-04-23T23:33:24.082Z,4.13
2023-04-23T23:35:52.531Z,4.27
2023-04-23T23:38:20.821Z,2.63
2023-04-23T23:40:48.794Z,4.63
2023-04-23T23:43:18.280Z,4.57
2023-04-23T23:45:46.247Z,5.87
2023-04-23T23:48:14.948Z,4.20
2023-04-23T23:50:43.008Z,2.13
2023-04-23T23:53:10.983Z,6.23
2023-04-23T23:55:40.777Z,7.87
2023-04-23T23:58:08.803Z,3.00
